sensor_id;sensor_type;location;lat;lon;timestamp;pressure;altitude;pressure_sealevel;temperature;humidity
77889;BME280;67082;41.704;44.768;2023-03-01T00:01:46;96034.50;;;11.99;37.30
77889;BME280;67082;41.704;44.768;2023-03-01T00:04:14;96036.50;;;11.98;37.68
77889;BME280;67082;41.704;44.768;2023-03-01T00:06:43;96027.91;;;12.05;37.25
77889;BME280;67082;41.704;44.768;2023-03-01T00:09:14;96014.59;;;12.00;37.10
77889;BME280;67082;41.704;44.768;2023-03-01T00:11:43;96004.78;;;12.08;37.03
77889;BME280;67082;41.704;44.768;2023-03-01T00:14:11;96010.28;;;11.99;37.89
77889;BME280;67082;41.704;44.768;2023-03-01T00:16:41;96033.28;;;12.00;37.47
77889;BME280;67082;41.704;44.768;2023-03-01T00:19:17;96017.94;;;11.95;37.27
77889;BME280;67082;41.704;44.768;2023-03-01T00:21:45;96017.38;;;12.00;37.04
77889;BME280;67082;41.704;44.768;2023-03-01T00:24:14;96003.22;;;11.86;36.95
77889;BME280;67082;41.704;44.768;2023-03-01T00:26:43;96010.84;;;11.94;37.40
77889;BME280;67082;41.704;44.768;2023-03-01T00:29:12;96005.13;;;11.89;37.61
77889;BME280;67082;41.704;44.768;2023-03-01T00:31:40;96011.19;;;11.96;37.22
77889;BME280;67082;41.704;44.768;2023-03-01T00:34:08;96012.75;;;11.97;37.51
77889;BME280;67082;41.704;44.768;2023-03-01T00:36:37;96019.56;;;12.05;37.75
77889;BME280;67082;41.704;44.768;2023-03-01T00:39:10;96013.69;;;12.03;37.35
77889;BME280;67082;41.704;44.768;2023-03-01T00:41:42;96004.41;;;11.97;37.83
77889;BME280;67082;41.704;44.768;2023-03-01T00:44:13;96005.44;;;11.91;37.72
77889;BME280;67082;41.704;44.768;2023-03-01T00:46:41;96007.69;;;11.83;37.94
77889;BME280;67082;41.704;44.768;2023-03-01T00:49:10;96014.28;;;11.98;37.96
77889;BME280;67082;41.704;44.768;2023-03-01T00:51:38;96003.63;;;11.97;38.01
77889;BME280;67082;41.704;44.768;2023-03-01T00:54:09;96007.34;;;12.03;37.83
77889;BME280;67082;41.704;44.768;2023-03-01T00:56:37;96005.25;;;11.85;37.85
77889;BME280;67082;41.704;44.768;2023-03-01T00:59:06;96013.63;;;11.94;37.79
77889;BME280;67082;41.704;44.768;2023-03-01T01:01:34;96010.09;;;11.94;38.13
77889;BME280;67082;41.704;44.768;2023-03-01T01:04:05;96017.31;;;11.91;37.98
77889;BME280;67082;41.704;44.768;2023-03-01T01:06:37;96009.50;;;11.77;38.51
77889;BME280;67082;41.704;44.768;2023-03-01T01:09:06;96020.47;;;11.81;38.91
77889;BME280;67082;41.704;44.768;2023-03-01T01:11:35;96019.13;;;11.85;38.49
77889;BME280;67082;41.704;44.768;2023-03-01T01:14:05;96022.53;;;11.89;38.43
77889;BME280;67082;41.704;44.768;2023-03-01T01:16:36;96011.63;;;11.95;38.35
77889;BME280;67082;41.704;44.768;2023-03-01T01:19:05;96023.41;;;11.99;38.79
77889;BME280;67082;41.704;44.768;2023-03-01T01:21:34;96010.41;;;11.74;39.76
77889;BME280;67082;41.704;44.768;2023-03-01T01:24:03;95998.72;;;11.79;38.76
77889;BME280;67082;41.704;44.768;2023-03-01T01:26:34;96009.84;;;11.79;38.38
77889;BME280;67082;41.704;44.768;2023-03-01T01:29:04;96011.31;;;11.93;38.35
77889;BME280;67082;41.704;44.768;2023-03-01T01:31:34;96019.31;;;11.91;38.63
77889;BME280;67082;41.704;44.768;2023-03-01T01:34:04;96017.84;;;11.99;38.92
77889;BME280;67082;41.704;44.768;2023-03-01T01:36:34;96018.16;;;12.01;38.99
77889;BME280;67082;41.704;44.768;2023-03-01T01:39:04;96012.28;;;11.77;39.34
77889;BME280;67082;41.704;44.768;2023-03-01T01:41:34;96021.78;;;11.89;39.00
77889;BME280;67082;41.704;44.768;2023-03-01T01:44:21;96002.09;;;11.74;39.29
77889;BME280;67082;41.704;44.768;2023-03-01T01:49:39;96015.56;;;11.85;39.76
77889;BME280;67082;41.704;44.768;2023-03-01T01:57:25;95999.22;;;11.87;39.61
77889;BME280;67082;41.704;44.768;2023-03-01T01:59:59;96004.16;;;11.83;39.99
77889;BME280;67082;41.704;44.768;2023-03-01T02:02:29;96015.75;;;11.69;39.71
77889;BME280;67082;41.704;44.768;2023-03-01T02:07:47;96022.53;;;11.89;39.92
77889;BME280;67082;41.704;44.768;2023-03-01T02:10:21;96008.25;;;11.78;40.47
77889;BME280;67082;41.704;44.768;2023-03-01T02:12:51;96019.38;;;11.78;40.01
77889;BME280;67082;41.704;44.768;2023-03-01T02:15:41;96015.13;;;11.65;40.02
77889;BME280;67082;41.704;44.768;2023-03-01T02:18:14;96014.22;;;11.68;40.46
77889;BME280;67082;41.704;44.768;2023-03-01T02:21:17;96016.28;;;11.76;40.28
77889;BME280;67082;41.704;44.768;2023-03-01T02:23:50;96021.06;;;11.76;39.99
77889;BME280;67082;41.704;44.768;2023-03-01T02:28:49;96003.22;;;11.64;40.36
77889;BME280;67082;41.704;44.768;2023-03-01T02:31:20;96009.44;;;11.68;40.62
77889;BME280;67082;41.704;44.768;2023-03-01T02:34:14;96027.25;;;11.58;40.78
77889;BME280;67082;41.704;44.768;2023-03-01T02:36:55;96013.03;;;11.56;41.31
77889;BME280;67082;41.704;44.768;2023-03-01T02:39:31;96015.75;;;11.69;41.13
77889;BME280;67082;41.704;44.768;2023-03-01T02:42:00;96003.91;;;11.68;40.88
77889;BME280;67082;41.704;44.768;2023-03-01T02:44:29;96008.22;;;11.69;40.91
77889;BME280;67082;41.704;44.768;2023-03-01T02:47:02;96006.09;;;11.73;40.84
77889;BME280;67082;41.704;44.768;2023-03-01T02:49:35;96026.41;;;11.70;40.70
77889;BME280;67082;41.704;44.768;2023-03-01T02:54:54;96021.47;;;11.53;40.83
77889;BME280;67082;41.704;44.768;2023-03-01T02:57:27;96012.94;;;11.60;40.76
77889;BME280;67082;41.704;44.768;2023-03-01T02:59:58;96000.28;;;11.59;40.84
77889;BME280;67082;41.704;44.768;2023-03-01T03:02:30;96010.91;;;11.60;40.84
77889;BME280;67082;41.704;44.768;2023-03-01T03:05:16;95998.81;;;11.54;41.05
77889;BME280;67082;41.704;44.768;2023-03-01T03:07:47;96004.91;;;11.62;41.24
77889;BME280;67082;41.704;44.768;2023-03-01T03:10:20;96014.69;;;11.54;41.20
77889;BME280;67082;41.704;44.768;2023-03-01T03:13:00;95998.16;;;11.50;41.77
77889;BME280;67082;41.704;44.768;2023-03-01T03:15:30;96001.91;;;11.56;40.92
77889;BME280;67082;41.704;44.768;2023-03-01T03:17:58;96006.16;;;11.61;40.92
77889;BME280;67082;41.704;44.768;2023-03-01T03:20:28;96008.94;;;11.48;40.76
77889;BME280;67082;41.704;44.768;2023-03-01T03:22:57;95999.97;;;11.44;41.01
77889;BME280;67082;41.704;44.768;2023-03-01T03:25:28;95997.06;;;11.48;41.09
77889;BME280;67082;41.704;44.768;2023-03-01T03:27:57;96004.28;;;11.45;41.28
77889;BME280;67082;41.704;44.768;2023-03-01T03:30:31;95998.88;;;11.42;41.58
77889;BME280;67082;41.704;44.768;2023-03-01T03:32:59;95997.94;;;11.45;40.91
77889;BME280;67082;41.704;44.768;2023-03-01T03:35:31;96005.84;;;11.46;41.05
77889;BME280;67082;41.704;44.768;2023-03-01T03:38:04;96003.72;;;11.50;40.71
77889;BME280;67082;41.704;44.768;2023-03-01T03:40:39;95998.81;;;11.54;40.65
77889;BME280;67082;41.704;44.768;2023-03-01T03:43:22;95995.59;;;11.56;40.43
77889;BME280;67082;41.704;44.768;2023-03-01T03:45:51;96002.53;;;11.39;40.89
77889;BME280;67082;41.704;44.768;2023-03-01T03:48:19;96000.03;;;11.53;40.43
77889;BME280;67082;41.704;44.768;2023-03-01T03:50:55;95991.84;;;11.50;40.99
77889;BME280;67082;41.704;44.768;2023-03-01T03:53:25;96003.31;;;11.39;41.31
77889;BME280;67082;41.704;44.768;2023-03-01T03:55:54;95996.84;;;11.42;41.39
77889;BME280;67082;41.704;44.768;2023-03-01T03:58:27;95995.19;;;11.45;41.31
77889;BME280;67082;41.704;44.768;2023-03-01T04:00:57;95989.75;;;11.41;41.53
77889;BME280;67082;41.704;44.768;2023-03-01T04:03:26;95975.47;;;11.30;41.59
77889;BME280;67082;41.704;44.768;2023-03-01T04:06:00;95980.78;;;11.37;41.75
77889;BME280;67082;41.704;44.768;2023-03-01T04:08:29;95980.72;;;11.28;41.82
77889;BME280;67082;41.704;44.768;2023-03-01T04:11:00;95987.41;;;11.18;41.58
77889;BME280;67082;41.704;44.768;2023-03-01T04:13:49;95989.91;;;11.25;41.56
77889;BME280;67082;41.704;44.768;2023-03-01T04:16:18;95987.44;;;11.40;40.93
77889;BME280;67082;41.704;44.768;2023-03-01T04:18:48;95984.22;;;11.41;41.03
77889;BME280;67082;41.704;44.768;2023-03-01T04:21:35;95988.66;;;11.39;40.56
77889;BME280;67082;41.704;44.768;2023-03-01T04:24:04;95983.81;;;11.30;40.61
77889;BME280;67082;41.704;44.768;2023-03-01T04:26:33;95987.66;;;11.45;40.57
77889;BME280;67082;41.704;44.768;2023-03-01T04:29:00;96000.91;;;11.63;40.21
77889;BME280;67082;41.704;44.768;2023-03-01T04:31:31;95992.91;;;11.65;40.46
77889;BME280;67082;41.704;44.768;2023-03-01T04:34:00;95998.97;;;11.72;40.45
77889;BME280;67082;41.704;44.768;2023-03-01T04:36:29;96001.69;;;11.63;40.52
77889;BME280;67082;41.704;44.768;2023-03-01T04:38:58;96003.56;;;11.66;40.52
77889;BME280;67082;41.704;44.768;2023-03-01T04:41:28;95994.47;;;11.66;40.26
77889;BME280;67082;41.704;44.768;2023-03-01T04:43:56;96002.25;;;11.58;40.41
77889;BME280;67082;41.704;44.768;2023-03-01T04:46:24;95996.13;;;11.85;39.65
77889;BME280;67082;41.704;44.768;2023-03-01T04:48:56;96003.75;;;11.93;39.72
77889;BME280;67082;41.704;44.768;2023-03-01T04:51:27;95996.97;;;11.94;39.37
77889;BME280;67082;41.704;44.768;2023-03-01T04:53:56;95995.66;;;12.08;39.07
77889;BME280;67082;41.704;44.768;2023-03-01T04:56:24;96007.59;;;12.17;39.20
77889;BME280;67082;41.704;44.768;2023-03-01T04:58:53;96001.66;;;12.28;38.94
77889;BME280;67082;41.704;44.768;2023-03-01T05:01:22;96005.50;;;12.30;39.00
77889;BME280;67082;41.704;44.768;2023-03-01T05:03:51;96009.44;;;12.42;38.92
77889;BME280;67082;41.704;44.768;2023-03-01T05:06:21;96014.09;;;12.45;38.84
77889;BME280;67082;41.704;44.768;2023-03-01T05:08:49;96017.63;;;12.45;38.92
77889;BME280;67082;41.704;44.768;2023-03-01T05:11:18;96020.72;;;12.47;39.20
77889;BME280;67082;41.704;44.768;2023-03-01T05:13:46;96006.97;;;12.44;39.21
77889;BME280;67082;41.704;44.768;2023-03-01T05:16:14;96036.78;;;12.43;39.08
77889;BME280;67082;41.704;44.768;2023-03-01T05:18:44;96029.13;;;12.56;38.89
77889;BME280;67082;41.704;44.768;2023-03-01T05:21:15;96023.41;;;12.60;39.01
77889;BME280;67082;41.704;44.768;2023-03-01T05:23:47;96031.81;;;12.69;39.32
77889;BME280;67082;41.704;44.768;2023-03-01T05:26:19;96027.00;;;12.69;38.74
77889;BME280;67082;41.704;44.768;2023-03-01T05:29:06;96024.28;;;12.87;38.32
77889;BME280;67082;41.704;44.768;2023-03-01T05:31:40;96018.44;;;12.85;38.78
77889;BME280;67082;41.704;44.768;2023-03-01T05:34:09;96014.47;;;12.95;38.13
77889;BME280;67082;41.704;44.768;2023-03-01T05:36:42;96018.22;;;13.01;37.94
77889;BME280;67082;41.704;44.768;2023-03-01T05:39:10;96016.06;;;13.05;37.75
77889;BME280;67082;41.704;44.768;2023-03-01T05:41:38;96031.31;;;13.01;37.97
77889;BME280;67082;41.704;44.768;2023-03-01T05:44:08;96028.13;;;13.20;37.43
77889;BME280;67082;41.704;44.768;2023-03-01T05:46:36;96015.16;;;13.26;37.11
77889;BME280;67082;41.704;44.768;2023-03-01T05:49:05;96021.97;;;13.25;37.07
77889;BME280;67082;41.704;44.768;2023-03-01T05:51:34;96030.34;;;13.43;36.73
77889;BME280;67082;41.704;44.768;2023-03-01T05:54:02;96019.53;;;13.54;36.56
77889;BME280;67082;41.704;44.768;2023-03-01T05:56:35;96015.81;;;13.48;36.53
77889;BME280;67082;41.704;44.768;2023-03-01T05:59:04;96024.19;;;13.66;35.93
77889;BME280;67082;41.704;44.768;2023-03-01T06:01:34;96008.72;;;13.65;35.96
77889;BME280;67082;41.704;44.768;2023-03-01T06:04:04;96015.22;;;13.80;36.03
77889;BME280;67082;41.704;44.768;2023-03-01T06:06:34;96012.28;;;13.84;35.98
77889;BME280;67082;41.704;44.768;2023-03-01T06:09:07;96023.84;;;13.91;36.13
77889;BME280;67082;41.704;44.768;2023-03-01T06:11:37;96021.53;;;13.99;35.33
77889;BME280;67082;41.704;44.768;2023-03-01T06:14:07;96020.28;;;14.00;36.00
77889;BME280;67082;41.704;44.768;2023-03-01T06:16:36;96007.94;;;14.01;35.40
77889;BME280;67082;41.704;44.768;2023-03-01T06:19:04;96010.56;;;14.04;35.65
77889;BME280;67082;41.704;44.768;2023-03-01T06:21:32;96015.81;;;14.20;35.03
77889;BME280;67082;41.704;44.768;2023-03-01T06:24:01;96007.88;;;14.28;35.33
77889;BME280;67082;41.704;44.768;2023-03-01T06:26:30;95994.41;;;14.35;34.72
77889;BME280;67082;41.704;44.768;2023-03-01T06:28:58;95997.66;;;14.43;34.84
77889;BME280;67082;41.704;44.768;2023-03-01T06:31:28;96018.69;;;14.53;35.02
77889;BME280;67082;41.704;44.768;2023-03-01T06:33:55;96010.75;;;14.60;34.70
77889;BME280;67082;41.704;44.768;2023-03-01T06:36:24;96009.19;;;14.59;34.74
77889;BME280;67082;41.704;44.768;2023-03-01T06:38:51;96006.69;;;14.70;34.64
77889;BME280;67082;41.704;44.768;2023-03-01T06:41:20;96016.84;;;14.82;34.09
77889;BME280;67082;41.704;44.768;2023-03-01T06:43:48;96009.38;;;14.88;34.18
77889;BME280;67082;41.704;44.768;2023-03-01T06:46:18;96003.16;;;14.93;33.90
77889;BME280;67082;41.704;44.768;2023-03-01T06:48:46;96008.19;;;14.80;33.75
77889;BME280;67082;41.704;44.768;2023-03-01T06:51:14;96019.63;;;14.91;33.84
77889;BME280;67082;41.704;44.768;2023-03-01T06:53:42;96016.28;;;15.11;33.55
77889;BME280;67082;41.704;44.768;2023-03-01T06:56:11;95999.34;;;15.14;33.45
77889;BME280;67082;41.704;44.768;2023-03-01T06:58:39;96014.03;;;15.24;33.32
77889;BME280;67082;41.704;44.768;2023-03-01T07:01:09;96000.84;;;15.24;32.86
77889;BME280;67082;41.704;44.768;2023-03-01T07:03:37;96003.63;;;15.24;32.75
77889;BME280;67082;41.704;44.768;2023-03-01T07:06:05;96017.09;;;15.35;32.85
77889;BME280;67082;41.704;44.768;2023-03-01T07:08:33;96008.88;;;15.31;33.25
77889;BME280;67082;41.704;44.768;2023-03-01T07:11:03;96001.19;;;15.50;32.66
77889;BME280;67082;41.704;44.768;2023-03-01T07:13:32;96003.41;;;15.60;32.64
77889;BME280;67082;41.704;44.768;2023-03-01T07:16:00;96004.72;;;15.50;32.63
77889;BME280;67082;41.704;44.768;2023-03-01T07:18:29;96000.56;;;15.46;32.89
77889;BME280;67082;41.704;44.768;2023-03-01T07:20:57;95997.38;;;15.62;32.63
77889;BME280;67082;41.704;44.768;2023-03-01T07:23:25;95995.25;;;15.71;32.15
77889;BME280;67082;41.704;44.768;2023-03-01T07:25:56;96003.66;;;15.48;32.74
77889;BME280;67082;41.704;44.768;2023-03-01T07:28:24;95998.16;;;15.39;33.10
77889;BME280;67082;41.704;44.768;2023-03-01T07:30:53;95990.84;;;15.41;33.26
77889;BME280;67082;41.704;44.768;2023-03-01T07:33:22;95998.84;;;15.48;33.20
77889;BME280;67082;41.704;44.768;2023-03-01T07:35:59;96000.38;;;15.49;32.89
77889;BME280;67082;41.704;44.768;2023-03-01T07:38:28;96002.59;;;15.45;33.58
77889;BME280;67082;41.704;44.768;2023-03-01T07:41:01;95996.06;;;15.48;35.91
77889;BME280;67082;41.704;44.768;2023-03-01T07:43:30;95985.50;;;15.67;35.07
77889;BME280;67082;41.704;44.768;2023-03-01T07:46:03;95985.81;;;15.69;32.84
77889;BME280;67082;41.704;44.768;2023-03-01T07:48:32;95965.03;;;15.46;32.93
77889;BME280;67082;41.704;44.768;2023-03-01T07:51:02;95978.97;;;15.70;34.36
77889;BME280;67082;41.704;44.768;2023-03-01T07:53:32;95977.84;;;15.76;33.03
77889;BME280;67082;41.704;44.768;2023-03-01T07:56:10;95974.16;;;15.70;33.68
77889;BME280;67082;41.704;44.768;2023-03-01T07:58:41;95968.34;;;15.59;33.47
77889;BME280;67082;41.704;44.768;2023-03-01T08:01:12;95963.53;;;15.60;33.59
77889;BME280;67082;41.704;44.768;2023-03-01T08:03:43;95970.97;;;15.63;33.36
77889;BME280;67082;41.704;44.768;2023-03-01T08:06:14;95961.81;;;15.62;32.84
77889;BME280;67082;41.704;44.768;2023-03-01T08:08:43;95975.47;;;15.60;33.01
77889;BME280;67082;41.704;44.768;2023-03-01T08:11:14;95966.50;;;15.56;33.33
77889;BME280;67082;41.704;44.768;2023-03-01T08:13:43;95962.78;;;15.59;33.11
77889;BME280;67082;41.704;44.768;2023-03-01T08:16:13;95957.19;;;15.59;33.06
77889;BME280;67082;41.704;44.768;2023-03-01T08:18:42;95944.94;;;15.57;32.84
77889;BME280;67082;41.704;44.768;2023-03-01T08:21:14;95942.63;;;15.55;32.49
77889;BME280;67082;41.704;44.768;2023-03-01T08:23:45;95956.44;;;15.73;32.59
77889;BME280;67082;41.704;44.768;2023-03-01T08:26:16;95952.72;;;15.91;32.83
77889;BME280;67082;41.704;44.768;2023-03-01T08:28:47;95951.84;;;15.85;32.47
77889;BME280;67082;41.704;44.768;2023-03-01T08:31:21;95952.22;;;15.92;32.45
77889;BME280;67082;41.704;44.768;2023-03-01T08:33:52;95951.09;;;16.13;32.24
77889;BME280;67082;41.704;44.768;2023-03-01T08:36:25;95945.88;;;16.21;32.15
77889;BME280;67082;41.704;44.768;2023-03-01T08:38:54;95917.06;;;16.15;32.09
77889;BME280;67082;41.704;44.768;2023-03-01T08:41:22;95937.56;;;16.26;32.47
77889;BME280;67082;41.704;44.768;2023-03-01T08:43:51;95929.31;;;16.03;32.48
77889;BME280;67082;41.704;44.768;2023-03-01T08:46:20;95919.75;;;16.24;32.57
77889;BME280;67082;41.704;44.768;2023-03-01T08:48:50;95920.53;;;16.24;32.76
77889;BME280;67082;41.704;44.768;2023-03-01T08:51:19;95909.72;;;16.32;32.78
77889;BME280;67082;41.704;44.768;2023-03-01T08:53:48;95900.66;;;16.37;32.43
77889;BME280;67082;41.704;44.768;2023-03-01T08:56:17;95911.19;;;16.42;32.64
77889;BME280;67082;41.704;44.768;2023-03-01T08:58:47;95905.09;;;16.43;32.52
77889;BME280;67082;41.704;44.768;2023-03-01T09:01:18;95910.97;;;16.31;32.56
77889;BME280;67082;41.704;44.768;2023-03-01T09:03:47;95896.31;;;16.50;32.42
77889;BME280;67082;41.704;44.768;2023-03-01T09:06:16;95885.69;;;16.54;32.48
77889;BME280;67082;41.704;44.768;2023-03-01T09:08:47;95881.56;;;16.50;32.73
77889;BME280;67082;41.704;44.768;2023-03-01T09:11:19;95878.25;;;16.66;33.04
77889;BME280;67082;41.704;44.768;2023-03-01T09:13:48;95854.81;;;16.83;32.36
77889;BME280;67082;41.704;44.768;2023-03-01T09:16:19;95869.75;;;16.60;32.82
77889;BME280;67082;41.704;44.768;2023-03-01T09:18:52;95855.19;;;16.71;32.86
77889;BME280;67082;41.704;44.768;2023-03-01T09:21:22;95841.09;;;16.65;32.69
77889;BME280;67082;41.704;44.768;2023-03-01T09:24:13;95833.38;;;16.60;33.01
77889;BME280;67082;41.704;44.768;2023-03-01T09:26:43;95847.81;;;16.73;32.79
77889;BME280;67082;41.704;44.768;2023-03-01T09:29:16;95832.44;;;16.83;32.79
77889;BME280;67082;41.704;44.768;2023-03-01T09:31:45;95834.69;;;16.79;32.70
77889;BME280;67082;41.704;44.768;2023-03-01T09:34:13;95829.41;;;16.67;32.71
77889;BME280;67082;41.704;44.768;2023-03-01T09:36:44;95820.34;;;16.72;32.37
77889;BME280;67082;41.704;44.768;2023-03-01T09:39:13;95806.94;;;16.61;32.71
77889;BME280;67082;41.704;44.768;2023-03-01T09:42:02;95808.22;;;16.60;32.71
77889;BME280;67082;41.704;44.768;2023-03-01T09:44:46;95812.63;;;16.67;32.82
77889;BME280;67082;41.704;44.768;2023-03-01T09:47:26;95800.69;;;16.86;32.40
77889;BME280;67082;41.704;44.768;2023-03-01T09:50:10;95796.69;;;16.73;32.56
77889;BME280;67082;41.704;44.768;2023-03-01T09:53:05;95784.25;;;16.94;32.64
77889;BME280;67082;41.704;44.768;2023-03-01T09:56:00;95790.31;;;16.92;32.64
77889;BME280;67082;41.704;44.768;2023-03-01T09:58:54;95791.28;;;16.89;32.54
77889;BME280;67082;41.704;44.768;2023-03-01T10:06:44;95767.63;;;16.90;32.44
77889;BME280;67082;41.704;44.768;2023-03-01T10:09:16;95771.69;;;16.89;32.88
77889;BME280;67082;41.704;44.768;2023-03-01T10:11:48;95772.69;;;16.86;32.84
77889;BME280;67082;41.704;44.768;2023-03-01T10:14:35;95778.56;;;16.88;32.74
77889;BME280;67082;41.704;44.768;2023-03-01T10:22:52;95769.97;;;17.17;32.19
77889;BME280;67082;41.704;44.768;2023-03-01T10:28:31;95754.09;;;17.54;31.82
77889;BME280;67082;41.704;44.768;2023-03-01T10:31:05;95747.75;;;17.59;31.87
77889;BME280;67082;41.704;44.768;2023-03-01T10:33:41;95753.44;;;17.65;31.81
77889;BME280;67082;41.704;44.768;2023-03-01T10:36:09;95743.16;;;17.56;32.05
77889;BME280;67082;41.704;44.768;2023-03-01T10:38:56;95746.38;;;17.75;32.16
77889;BME280;67082;41.704;44.768;2023-03-01T10:41:26;95739.19;;;17.68;32.07
77889;BME280;67082;41.704;44.768;2023-03-01T10:43:57;95740.69;;;17.64;32.09
77889;BME280;67082;41.704;44.768;2023-03-01T10:46:37;95723.09;;;17.63;32.15
77889;BME280;67082;41.704;44.768;2023-03-01T10:49:20;95727.88;;;17.88;32.08
77889;BME280;67082;41.704;44.768;2023-03-01T10:51:51;95714.88;;;17.85;32.13
77889;BME280;67082;41.704;44.768;2023-03-01T10:54:26;95731.13;;;17.81;32.15
77889;BME280;67082;41.704;44.768;2023-03-01T10:56:58;95716.88;;;17.48;32.56
77889;BME280;67082;41.704;44.768;2023-03-01T10:59:38;95705.53;;;17.63;32.36
77889;BME280;67082;41.704;44.768;2023-03-01T11:02:30;95710.84;;;17.61;32.60
77889;BME280;67082;41.704;44.768;2023-03-01T11:07:50;95682.31;;;17.62;32.29
77889;BME280;67082;41.704;44.768;2023-03-01T11:10:31;95685.94;;;17.68;32.59
77889;BME280;67082;41.704;44.768;2023-03-01T11:13:15;95702.34;;;17.50;32.57
77889;BME280;67082;41.704;44.768;2023-03-01T11:16:02;95688.47;;;17.66;32.26
77889;BME280;67082;41.704;44.768;2023-03-01T11:18:31;95697.63;;;17.67;32.55
77889;BME280;67082;41.704;44.768;2023-03-01T11:21:15;95685.25;;;17.22;33.18
77889;BME280;67082;41.704;44.768;2023-03-01T11:23:45;95673.06;;;17.51;32.88
77889;BME280;67082;41.704;44.768;2023-03-01T11:26:15;95672.09;;;17.59;32.71
77889;BME280;67082;41.704;44.768;2023-03-01T11:28:51;95685.69;;;17.66;33.22
77889;BME280;67082;41.704;44.768;2023-03-01T11:31:22;95674.03;;;17.79;32.59
77889;BME280;67082;41.704;44.768;2023-03-01T11:33:57;95671.59;;;17.92;32.46
77889;BME280;67082;41.704;44.768;2023-03-01T11:36:32;95662.06;;;17.78;32.84
77889;BME280;67082;41.704;44.768;2023-03-01T11:39:17;95671.13;;;17.62;33.04
77889;BME280;67082;41.704;44.768;2023-03-01T11:42:02;95667.19;;;17.49;33.31
77889;BME280;67082;41.704;44.768;2023-03-01T11:44:49;95660.00;;;17.42;33.43
77889;BME280;67082;41.704;44.768;2023-03-01T11:53:04;95671.41;;;17.13;34.30
77889;BME280;67082;41.704;44.768;2023-03-01T12:02:12;95676.50;;;17.09;34.37
77889;BME280;67082;41.704;44.768;2023-03-01T12:10:23;95660.06;;;17.22;34.39
77889;BME280;67082;41.704;44.768;2023-03-01T12:18:47;95666.00;;;17.04;34.51
77889;BME280;67082;41.704;44.768;2023-03-01T12:23:56;95661.34;;;16.96;34.80
77889;BME280;67082;41.704;44.768;2023-03-01T12:26:39;95663.06;;;16.88;34.86
77889;BME280;67082;41.704;44.768;2023-03-01T12:29:26;95648.53;;;16.89;34.87
77889;BME280;67082;41.704;44.768;2023-03-01T12:42:57;95684.38;;;16.60;34.88
77889;BME280;67082;41.704;44.768;2023-03-01T12:51:02;95660.81;;;16.46;35.01
77889;BME280;67082;41.704;44.768;2023-03-01T12:53:45;95659.38;;;16.36;35.10
77889;BME280;67082;41.704;44.768;2023-03-01T12:56:28;95679.38;;;16.29;35.13
77889;BME280;67082;41.704;44.768;2023-03-01T12:59:57;95683.75;;;16.36;35.16
77889;BME280;67082;41.704;44.768;2023-03-01T13:02:33;95675.03;;;16.28;35.48
77889;BME280;67082;41.704;44.768;2023-03-01T13:10:58;95666.34;;;16.06;35.65
77889;BME280;67082;41.704;44.768;2023-03-01T13:13:29;95666.78;;;15.99;35.70
77889;BME280;67082;41.704;44.768;2023-03-01T13:19:17;95669.44;;;16.28;35.39
77889;BME280;67082;41.704;44.768;2023-03-01T13:21:48;95667.78;;;16.16;35.55
77889;BME280;67082;41.704;44.768;2023-03-01T13:29:54;95666.78;;;15.99;36.22
77889;BME280;67082;41.704;44.768;2023-03-01T13:32:34;95669.97;;;15.92;35.98
77889;BME280;67082;41.704;44.768;2023-03-01T13:37:44;95651.44;;;15.75;36.93
77889;BME280;67082;41.704;44.768;2023-03-01T13:42:52;95650.66;;;15.74;36.65
77889;BME280;67082;41.704;44.768;2023-03-01T13:45:36;95659.78;;;15.89;36.78
77889;BME280;67082;41.704;44.768;2023-03-01T13:48:15;95664.22;;;15.81;36.58
77889;BME280;67082;41.704;44.768;2023-03-01T13:51:02;95658.16;;;15.83;36.73
77889;BME280;67082;41.704;44.768;2023-03-01T13:53:34;95642.78;;;15.73;37.08
77889;BME280;67082;41.704;44.768;2023-03-01T13:56:27;95667.94;;;15.73;37.09
77889;BME280;67082;41.704;44.768;2023-03-01T13:58:58;95650.38;;;15.72;37.08
77889;BME280;67082;41.704;44.768;2023-03-01T14:01:30;95657.81;;;15.61;37.32
77889;BME280;67082;41.704;44.768;2023-03-01T14:04:01;95651.75;;;15.62;37.21
77889;BME280;67082;41.704;44.768;2023-03-01T14:06:31;95661.66;;;15.63;37.38
77889;BME280;67082;41.704;44.768;2023-03-01T14:09:24;95665.00;;;15.47;37.44
77889;BME280;67082;41.704;44.768;2023-03-01T14:12:34;95643.03;;;15.40;37.69
77889;BME280;67082;41.704;44.768;2023-03-01T14:15:27;95655.56;;;15.45;37.46
77889;BME280;67082;41.704;44.768;2023-03-01T14:18:21;95658.03;;;15.28;37.28
77889;BME280;67082;41.704;44.768;2023-03-01T14:20:51;95655.84;;;15.18;37.60
77889;BME280;67082;41.704;44.768;2023-03-01T14:23:22;95652.44;;;15.28;37.69
77889;BME280;67082;41.704;44.768;2023-03-01T14:25:55;95651.91;;;15.24;37.15
77889;BME280;67082;41.704;44.768;2023-03-01T14:28:36;95634.97;;;15.13;37.47
77889;BME280;67082;41.704;44.768;2023-03-01T14:33:55;95643.69;;;15.21;37.25
77889;BME280;67082;41.704;44.768;2023-03-01T14:36:30;95652.28;;;15.17;37.84
77889;BME280;67082;41.704;44.768;2023-03-01T14:39:00;95648.25;;;15.18;37.82
77889;BME280;67082;41.704;44.768;2023-03-01T14:41:34;95646.78;;;15.23;37.63
77889;BME280;67082;41.704;44.768;2023-03-01T14:44:07;95638.03;;;15.15;38.11
77889;BME280;67082;41.704;44.768;2023-03-01T14:46:40;95631.59;;;15.09;38.47
77889;BME280;67082;41.704;44.768;2023-03-01T14:49:14;95629.38;;;15.13;37.54
77889;BME280;67082;41.704;44.768;2023-03-01T14:52:07;95639.97;;;15.09;38.24
77889;BME280;67082;41.704;44.768;2023-03-01T14:54:43;95630.75;;;15.03;37.87
77889;BME280;67082;41.704;44.768;2023-03-01T14:57:16;95644.88;;;15.00;38.38
77889;BME280;67082;41.704;44.768;2023-03-01T14:59:45;95636.31;;;15.03;37.96